Time;durP1;ratioP1;P1;durP2;ratioP2;P2;SDS_P1;SDS_P2;PMS_P1;PMS_P2;Temp;Humidity;BMP_temperature;BMP_pressure;BME280_temperature;BME280_humidity;BME280_pressure;Samples;Min_cycle;Max_cycle;Signal;HPM_P1;HPM_P2
2023/08/03 00:01:20;;;;;;;14.95;13.45;;;;;;;21.58;75.30;92476.66;4990240;28;20728;-75
2023/08/03 00:03:45;;;;;;;13.18;12.00;;;;;;;21.44;75.80;92471.06;4990252;28;20183;-75
2023/08/03 00:06:10;;;;;;;13.57;12.57;;;;;;;21.44;76.59;92468.41;4985858;28;20218;-75
2023/08/03 00:08:36;;;;;;;14.70;13.32;;;;;;;21.45;76.72;92462.75;4989328;28;20249;-74
2023/08/03 00:11:01;;;;;;;14.38;13.18;;;;;;;21.32;76.73;92471.19;4980451;28;20235;-74
2023/08/03 00:13:27;;;;;;;13.15;11.95;;;;;;;21.32;76.44;92476.50;4993255;28;20192;-74
2023/08/03 00:15:52;;;;;;;14.88;13.65;;;;;;;21.36;76.71;92475.44;4987107;28;20278;-74
2023/08/03 00:18:17;;;;;;;14.70;13.32;;;;;;;21.45;76.28;92481.34;4992607;28;20199;-74
2023/08/03 00:20:43;;;;;;;15.00;13.70;;;;;;;21.23;76.98;92470.63;4993828;28;20244;-75
2023/08/03 00:23:08;;;;;;;14.35;13.18;;;;;;;21.20;77.51;92476.63;5002003;28;20186;-75
2023/08/03 00:25:33;;;;;;;16.10;14.88;;;;;;;21.19;77.54;92472.41;4985959;28;20694;-73
2023/08/03 00:27:59;;;;;;;14.25;13.00;;;;;;;21.09;78.55;92471.06;4994101;28;20178;-75
2023/08/03 00:30:24;;;;;;;14.80;13.50;;;;;;;21.05;78.50;92461.47;4993570;28;20236;-74
2023/08/03 00:32:50;;;;;;;15.77;14.57;;;;;;;20.90;79.59;92460.38;4993635;28;20225;-74
2023/08/03 00:35:15;;;;;;;14.43;13.18;;;;;;;20.99;79.27;92471.59;4993327;28;20201;-75
2023/08/03 00:37:40;;;;;;;14.32;13.13;;;;;;;20.87;80.36;92460.28;4993843;28;20185;-74
2023/08/03 00:40:07;;;;;;;15.30;13.90;;;;;;;21.04;80.54;92470.56;4993979;28;20531;-74
2023/08/03 00:42:32;;;;;;;13.98;12.68;;;;;;;21.11;80.12;92468.06;4993643;28;20188;-75
2023/08/03 00:44:58;;;;;;;15.52;14.23;;;;;;;21.09;81.15;92468.41;4993647;28;20190;-75
2023/08/03 00:47:23;;;;;;;14.80;13.52;;;;;;;21.14;80.95;92470.00;5008392;28;20218;-74
2023/08/03 00:49:49;;;;;;;15.07;13.88;;;;;;;21.05;80.56;92462.25;4993646;28;20191;-74
2023/08/03 00:52:14;;;;;;;15.10;13.55;;;;;;;21.04;80.07;92465.25;4993332;28;20223;-74
2023/08/03 00:54:39;;;;;;;15.05;13.77;;;;;;;20.96;81.71;92471.53;4993825;28;20412;-75
2023/08/03 00:57:05;;;;;;;15.00;13.60;;;;;;;20.85;81.94;92473.13;4993292;28;20253;-74
2023/08/03 00:59:31;;;;;;;14.48;13.38;;;;;;;20.91;82.34;92461.13;4993499;28;20210;-75
2023/08/03 01:01:56;;;;;;;15.05;13.88;;;;;;;20.89;81.14;92458.81;4993085;28;20214;-74
2023/08/03 01:04:21;;;;;;;14.93;13.77;;;;;;;20.98;80.71;92469.28;4993302;28;20194;-75
2023/08/03 01:06:47;;;;;;;15.85;14.55;;;;;;;20.98;81.08;92471.94;4992787;28;20229;-74
2023/08/03 01:09:12;;;;;;;14.90;13.38;;;;;;;20.89;81.80;92468.69;4993401;28;20220;-75
2023/08/03 01:11:38;;;;;;;14.52;13.30;;;;;;;20.92;81.38;92463.44;4992965;28;20256;-76
2023/08/03 01:14:04;;;;;;;15.85;14.55;;;;;;;20.96;81.14;92460.91;4993395;28;20223;-72
2023/08/03 01:16:29;;;;;;;17.63;14.00;;;;;;;20.81;81.94;92459.75;4992864;28;20227;-71
2023/08/03 01:18:55;;;;;;;15.20;13.75;;;;;;;20.86;82.07;92464.81;4993137;28;20511;-71
2023/08/03 01:21:21;;;;;;;15.30;14.15;;;;;;;20.90;81.63;92470.22;4992467;28;20226;-71
2023/08/03 01:23:47;;;;;;;14.98;13.80;;;;;;;20.79;81.83;92463.88;4993538;28;20248;-71
2023/08/03 01:26:12;;;;;;;15.60;14.35;;;;;;;20.68;83.29;92469.69;4992943;28;20237;-70
2023/08/03 01:28:38;;;;;;;16.02;14.45;;;;;;;20.73;81.64;92450.13;4993380;28;20193;-71
2023/08/03 01:31:03;;;;;;;14.93;13.75;;;;;;;20.73;81.66;92463.41;4992276;28;20312;-70
2023/08/03 01:33:29;;;;;;;15.15;13.65;;;;;;;20.73;82.23;92459.97;4992841;28;20227;-71
2023/08/03 01:35:55;;;;;;;15.65;14.35;;;;;;;20.74;83.33;92464.94;4992433;28;20235;-71
2023/08/03 01:38:20;;;;;;;15.05;13.75;;;;;;;20.67;82.54;92459.44;4993144;28;20253;-71
2023/08/03 01:40:46;;;;;;;15.30;13.95;;;;;;;20.64;82.50;92471.53;4992338;28;20297;-71
2023/08/03 01:43:11;;;;;;;14.75;13.55;;;;;;;20.66;82.14;92464.00;4992886;28;20209;-70
2023/08/03 01:45:37;;;;;;;15.75;14.55;;;;;;;20.70;81.93;92467.50;4997009;28;20234;-71
2023/08/03 01:48:03;;;;;;;15.07;13.77;;;;;;;20.67;82.34;92462.88;5006003;28;20201;-71
2023/08/03 01:50:28;;;;;;;15.48;14.05;;;;;;;20.75;83.10;92468.34;5007100;28;20227;-71
2023/08/03 01:52:53;;;;;;;16.15;14.65;;;;;;;20.65;83.11;92470.41;4988524;28;20189;-71
2023/08/03 01:55:19;;;;;;;16.20;14.80;;;;;;;20.68;82.86;92459.09;4992764;28;20195;-70
2023/08/03 01:57:44;;;;;;;15.77;14.38;;;;;;;20.46;85.20;92462.38;4991953;28;20195;-71
2023/08/03 02:00:10;;;;;;;15.85;14.55;;;;;;;20.61;84.14;92469.56;4991412;28;20528;-71
2023/08/03 02:02:35;;;;;;;16.90;15.43;;;;;;;20.60;83.53;92468.03;4992176;28;20198;-71
2023/08/03 02:05:01;;;;;;;15.38;14.18;;;;;;;20.54;84.78;92456.13;4992285;28;20194;-71
2023/08/03 02:07:53;;;;;;;16.02;14.63;;;;;;;20.78;84.01;92478.28;4989586;28;20192;-71
2023/08/03 02:10:20;;;;;;;16.45;15.05;;;;;;;20.66;84.38;92471.94;4988284;28;20213;-71
2023/08/03 02:12:46;;;;;;;15.55;14.20;;;;;;;20.64;84.12;92471.53;5011784;28;20189;-71
2023/08/03 02:15:13;;;;;;;15.73;14.27;;;;;;;20.54;84.72;92458.00;5011119;28;20201;-71
2023/08/03 02:17:39;;;;;;;17.10;15.50;;;;;;;20.57;84.68;92465.28;5001702;28;20189;-71
2023/08/03 02:20:06;;;;;;;16.02;14.60;;;;;;;20.58;84.73;92464.94;5010943;28;20219;-70
2023/08/03 02:22:31;;;;;;;15.90;14.40;;;;;;;20.62;85.27;92465.03;5011536;28;20183;-71
2023/08/03 02:24:56;;;;;;;15.43;14.13;;;;;;;20.69;85.17;92465.19;5011627;28;20180;-71
2023/08/03 02:27:22;;;;;;;16.38;14.88;;;;;;;20.58;85.16;92470.25;5011278;28;20214;-71
2023/08/03 02:29:47;;;;;;;15.52;14.23;;;;;;;20.48;86.57;92462.78;4999752;28;20187;-71
2023/08/03 02:32:12;;;;;;;15.77;14.55;;;;;;;20.48;86.63;92465.44;5010537;28;20228;-70
2023/08/03 02:34:38;;;;;;;18.33;16.73;;;;;;;20.44;87.42;92469.91;5002387;28;20198;-73
2023/08/03 02:37:03;;;;;;;18.63;16.75;;;;;;;20.40;87.64;92479.66;5004666;28;20223;-73
2023/08/03 02:39:29;;;;;;;17.15;15.38;;;;;;;20.49;87.09;92472.31;5011471;28;20214;-74
2023/08/03 02:41:54;;;;;;;18.80;16.38;;;;;;;20.42;87.40;92477.41;4998839;28;20246;-74
2023/08/03 02:44:19;;;;;;;18.25;15.30;;;;;;;20.47;87.46;92477.16;5005761;28;20183;-73
2023/08/03 02:46:45;;;;;;;20.40;17.45;;;;;;;20.42;87.64;92472.13;5003951;28;20254;-74
2023/08/03 02:49:10;;;;;;;17.65;16.08;;;;;;;20.34;88.08;92472.28;5010382;28;20187;-74
2023/08/03 02:51:35;;;;;;;18.17;16.48;;;;;;;20.48;88.06;92481.34;5010603;28;20217;-74
2023/08/03 02:54:01;;;;;;;17.13;15.73;;;;;;;20.45;87.74;92475.97;5010986;28;20206;-75
2023/08/03 02:56:26;;;;;;;17.92;16.42;;;;;;;20.35;88.30;92477.25;5008079;28;20307;-74
2023/08/03 02:58:52;;;;;;;17.00;15.15;;;;;;;20.38;88.47;92475.78;5009536;28;20921;-74
2023/08/03 03:01:18;;;;;;;17.95;16.48;;;;;;;20.34;88.22;92470.38;4999293;28;20233;-73
2023/08/03 03:03:44;;;;;;;17.83;16.23;;;;;;;20.16;88.40;92457.81;4990743;28;20246;-72
2023/08/03 03:06:09;;;;;;;17.15;15.50;;;;;;;19.94;89.73;92445.06;5000209;28;20234;-73
2023/08/03 03:08:34;;;;;;;16.30;14.73;;;;;;;20.19;89.49;92486.28;5010428;28;20255;-73
2023/08/03 03:11:00;;;;;;;18.30;16.42;;;;;;;20.31;89.39;92483.59;5002021;28;20227;-73
2023/08/03 03:13:25;;;;;;;17.67;16.10;;;;;;;20.17;89.91;92486.63;4991102;28;20197;-73
2023/08/03 03:15:51;;;;;;;17.13;15.73;;;;;;;20.21;90.36;92487.50;4990898;28;20235;-72
2023/08/03 03:18:17;;;;;;;17.02;15.60;;;;;;;20.26;89.33;92484.59;4990632;28;20208;-73
2023/08/03 03:20:43;;;;;;;17.67;16.20;;;;;;;20.20;89.25;92496.53;4990459;28;21276;-73
2023/08/03 03:23:08;;;;;;;17.45;15.88;;;;;;;20.20;89.35;92495.78;4985054;28;20187;-73
2023/08/03 03:25:33;;;;;;;17.67;16.05;;;;;;;20.16;90.10;92501.00;4990540;28;20224;-72
2023/08/03 03:28:04;;;;;;;18.17;16.67;;;;;;;20.18;89.64;92504.09;4984927;28;20186;-72
2023/08/03 03:30:31;;;;;;;18.15;16.35;;;;;;;20.27;89.53;92496.75;4989315;28;20237;-72
2023/08/03 03:32:56;;;;;;;17.42;15.75;;;;;;;20.38;89.08;92492.47;5006974;28;20282;-73
2023/08/03 03:35:21;;;;;;;18.05;16.45;;;;;;;20.42;88.45;92509.25;5009337;28;20224;-73
2023/08/03 03:37:47;;;;;;;17.27;15.77;;;;;;;20.29;89.51;92499.84;5004428;28;20207;-72
2023/08/03 03:40:12;;;;;;;17.08;15.48;;;;;;;20.27;90.28;92504.69;5006776;28;20247;-73
2023/08/03 03:42:38;;;;;;;17.48;15.90;;;;;;;20.41;90.28;92506.94;5009985;28;20191;-73
2023/08/03 03:45:03;;;;;;;35.35;18.70;;;;;;;20.36;90.65;92500.00;5009363;28;20246;-73
2023/08/03 03:47:29;;;;;;;19.05;15.45;;;;;;;20.49;89.13;92501.47;5004375;28;21738;-73
2023/08/03 03:49:54;;;;;;;19.30;16.00;;;;;;;20.52;90.53;92503.44;5003263;28;20230;-72
2023/08/03 03:52:19;;;;;;;17.33;15.88;;;;;;;20.49;90.07;92490.88;5006269;28;20280;-72
2023/08/03 03:54:45;;;;;;;18.00;16.25;;;;;;;20.63;90.66;92498.38;4992234;28;20185;-71
2023/08/03 03:57:10;;;;;;;17.48;15.95;;;;;;;20.82;88.50;92511.75;5006934;28;20944;-71
2023/08/03 03:59:35;;;;;;;17.80;16.33;;;;;;;20.82;88.30;92505.66;5000083;28;20223;-75
2023/08/03 04:02:01;;;;;;;17.45;15.88;;;;;;;20.86;89.15;92504.63;5003012;28;20287;-71
2023/08/03 04:04:26;;;;;;;17.88;16.15;;;;;;;20.92;88.87;92499.84;5004687;28;20215;-70
2023/08/03 04:06:51;;;;;;;18.00;16.33;;;;;;;21.14;87.60;92513.28;5008620;28;20227;-70
2023/08/03 04:09:17;;;;;;;17.30;15.68;;;;;;;21.23;87.23;92516.50;5004310;28;20271;-70
2023/08/03 04:11:42;;;;;;;17.38;15.98;;;;;;;21.27;87.62;92521.91;5008673;28;20238;-70
2023/08/03 04:14:07;;;;;;;17.55;16.05;;;;;;;21.27;87.29;92500.66;5008879;28;20217;-71
2023/08/03 04:16:33;;;;;;;17.63;16.08;;;;;;;21.37;87.19;92508.84;5014540;28;20288;-71
2023/08/03 04:18:58;;;;;;;18.55;16.90;;;;;;;21.50;86.47;92514.81;4996698;28;20206;-70
2023/08/03 04:21:23;;;;;;;17.27;15.68;;;;;;;21.69;84.60;92514.84;5007274;28;20284;-70
2023/08/03 04:23:49;;;;;;;17.05;15.65;;;;;;;21.83;83.89;92520.50;5005618;28;20216;-71
2023/08/03 04:26:14;;;;;;;18.30;16.80;;;;;;;21.87;83.38;92523.97;5008619;28;20259;-70
2023/08/03 04:28:42;;;;;;;16.95;15.35;;;;;;;21.77;84.86;92520.00;5007326;28;20208;-71
2023/08/03 04:31:08;;;;;;;18.38;16.70;;;;;;;21.86;84.49;92515.25;5002448;28;20218;-70
2023/08/03 04:33:33;;;;;;;19.40;17.35;;;;;;;21.90;84.65;92518.75;5003924;28;20227;-71
2023/08/03 04:35:59;;;;;;;17.50;15.90;;;;;;;22.00;83.67;92517.41;5023924;28;20252;-70
2023/08/03 04:38:25;;;;;;;19.52;17.65;;;;;;;22.18;82.53;92527.25;5008658;28;20266;-71
2023/08/03 04:40:50;;;;;;;18.20;16.52;;;;;;;22.14;83.00;92539.75;5005734;28;20309;-71
2023/08/03 04:43:16;;;;;;;19.02;16.42;;;;;;;22.30;82.83;92533.56;5008664;28;20250;-70
2023/08/03 04:45:41;;;;;;;19.33;17.55;;;;;;;22.34;82.91;92537.03;5002158;28;20306;-71
2023/08/03 04:48:06;;;;;;;18.73;16.75;;;;;;;22.65;80.12;92542.97;5005224;28;20195;-72
2023/08/03 04:50:32;;;;;;;19.17;17.38;;;;;;;22.48;81.72;92540.75;5003675;28;20265;-71
2023/08/03 04:52:57;;;;;;;18.10;16.35;;;;;;;22.38;81.52;92551.19;5008726;28;20212;-71
2023/08/03 04:55:22;;;;;;;19.73;17.77;;;;;;;22.56;80.77;92544.31;5008389;28;20264;-72
2023/08/03 04:57:48;;;;;;;20.98;18.88;;;;;;;22.43;81.10;92543.69;5011077;28;20191;-73
2023/08/03 05:00:13;;;;;;;20.00;18.15;;;;;;;22.52;81.30;92543.50;5009957;28;20225;-73
2023/08/03 05:02:39;;;;;;;20.27;18.15;;;;;;;22.58;80.37;92545.53;4992678;28;20222;-69
2023/08/03 05:05:05;;;;;;;20.00;18.20;;;;;;;23.04;78.73;92548.94;4992196;28;20195;-69
2023/08/03 05:07:30;;;;;;;19.77;17.67;;;;;;;23.05;78.06;92561.91;4992151;28;20192;-72
2023/08/03 05:09:55;;;;;;;19.55;17.85;;;;;;;23.00;77.53;92548.91;4992618;28;20184;-76
2023/08/03 05:12:21;;;;;;;19.05;17.15;;;;;;;22.75;79.28;92555.72;5016851;28;20225;-71
2023/08/03 05:14:46;;;;;;;20.10;17.63;;;;;;;23.04;78.19;92568.38;5000932;28;20184;-69
2023/08/03 05:17:12;;;;;;;19.95;18.15;;;;;;;23.06;77.48;92563.47;5005439;28;20224;-69
2023/08/03 05:19:37;;;;;;;19.48;17.65;;;;;;;22.62;78.05;92554.34;5000459;28;20228;-70
2023/08/03 05:22:03;;;;;;;21.08;18.98;;;;;;;22.85;77.98;92567.66;5010976;28;20432;-70
2023/08/03 05:24:28;;;;;;;20.80;17.17;;;;;;;23.33;76.21;92570.38;5009801;28;20652;-71
2023/08/03 05:26:53;;;;;;;19.58;17.40;;;;;;;23.36;75.51;92561.66;5011747;28;20237;-70
2023/08/03 05:29:19;;;;;;;17.75;16.00;;;;;;;23.42;75.00;92570.16;5012016;28;20280;-70
2023/08/03 05:31:48;;;;;;;20.55;17.15;;;;;;;23.85;72.22;92568.84;5006098;28;20230;-72
2023/08/03 05:34:15;;;;;;;18.20;16.35;;;;;;;23.89;73.12;92578.44;5011972;28;20257;-70
2023/08/03 05:36:40;;;;;;;20.13;17.05;;;;;;;23.70;73.80;92576.63;5010868;28;20235;-69
2023/08/03 05:39:07;;;;;;;18.15;16.45;;;;;;;24.10;71.19;92577.97;5011493;28;20213;-69
2023/08/03 05:41:33;;;;;;;19.65;17.63;;;;;;;23.81;73.69;92571.47;4999371;28;20237;-69
2023/08/03 05:43:58;;;;;;;19.50;17.60;;;;;;;23.97;73.81;92580.09;4992116;28;20194;-68
2023/08/03 05:46:29;;;;;;;18.58;16.77;;;;;;;23.71;75.18;92578.19;4991303;28;20225;-68
2023/08/03 05:48:55;;;;;;;19.88;17.58;;;;;;;24.58;71.05;92577.78;4989937;28;20263;-68
2023/08/03 05:51:27;;;;;;;18.92;16.92;;;;;;;26.91;63.15;92574.81;4991157;28;20216;-69
2023/08/03 05:53:56;;;;;;;18.73;16.73;;;;;;;27.01;61.94;92590.91;4988174;28;20239;-68
2023/08/03 05:56:22;;;;;;;19.13;17.20;;;;;;;27.77;59.23;92596.72;4991841;28;20231;-68
2023/08/03 05:58:48;;;;;;;18.63;16.83;;;;;;;30.87;49.53;92613.25;4987798;28;20223;-69
2023/08/03 06:01:18;;;;;;;19.50;16.95;;;;;;;32.64;44.26;92610.09;4987792;28;20232;-68
2023/08/03 06:03:44;;;;;;;18.92;16.95;;;;;;;36.30;35.94;92622.34;4990686;28;20191;-70
2023/08/03 06:06:11;;;;;;;16.00;14.50;;;;;;;37.33;33.78;92631.19;5006161;28;20228;-69
2023/08/03 06:08:42;;;;;;;18.15;15.57;;;;;;;34.88;36.97;92627.75;4989852;28;20191;-70
2023/08/03 06:11:09;;;;;;;16.30;14.73;;;;;;;36.51;34.89;92627.06;4990352;28;20255;-70
2023/08/03 06:13:35;;;;;;;16.10;14.52;;;;;;;36.13;34.46;92634.53;4990470;28;20196;-70
2023/08/03 06:16:09;;;;;;;16.65;14.93;;;;;;;38.53;30.13;92639.66;4988922;28;20268;-71
2023/08/03 06:18:41;;;;;;;18.33;15.25;;;;;;;39.25;29.14;92643.63;4986738;28;20218;-71
2023/08/03 06:21:07;;;;;;;16.80;14.90;;;;;;;40.03;27.96;92647.09;4988611;28;20318;-71
2023/08/03 06:23:32;;;;;;;18.77;14.70;;;;;;;38.78;29.88;92643.34;5025654;28;20187;-70
2023/08/03 06:25:59;;;;;;;15.45;13.57;;;;;;;39.07;29.28;92643.66;5010507;28;20439;-72
2023/08/03 06:28:26;;;;;;;17.15;14.18;;;;;;;39.55;28.11;92642.69;5009613;28;20196;-69
2023/08/03 06:30:51;;;;;;;17.95;14.07;;;;;;;37.66;30.61;92643.16;5006199;28;20657;-70
2023/08/03 06:33:18;;;;;;;14.52;13.10;;;;;;;39.80;27.87;92650.50;5010368;28;20235;-70
2023/08/03 06:35:50;;;;;;;17.85;13.75;;;;;;;39.38;28.17;92649.69;5003826;28;20263;-70
2023/08/03 06:38:18;;;;;;;17.23;13.95;;;;;;;34.45;37.03;92630.06;4987089;28;20183;-68
2023/08/03 06:40:46;;;;;;;15.93;14.43;;;;;;;31.66;43.25;92625.25;5017418;28;20230;-70
2023/08/03 06:43:13;;;;;;;20.05;14.55;;;;;;;29.74;48.82;92616.28;5001583;28;20191;-70
2023/08/03 06:45:39;;;;;;;17.48;15.43;;;;;;;28.78;52.62;92613.78;5005687;28;20242;-69
2023/08/03 06:48:05;;;;;;;17.88;16.08;;;;;;;27.72;56.30;92608.59;5008666;28;20263;-70
2023/08/03 06:50:32;;;;;;;17.38;15.57;;;;;;;28.33;53.67;92614.69;5005378;28;20220;-71
2023/08/03 06:52:59;;;;;;;17.80;16.00;;;;;;;27.74;55.54;92616.25;4990773;28;20207;-70
2023/08/03 06:55:25;;;;;;;23.00;16.80;;;;;;;27.25;57.91;92613.53;4993394;28;20240;-71
2023/08/03 06:57:50;;;;;;;20.00;16.77;;;;;;;27.00;58.40;92604.69;5010004;28;20230;-71
2023/08/03 07:00:16;;;;;;;18.25;16.35;;;;;;;27.19;59.15;92607.03;5008875;28;20215;-71
2023/08/03 07:02:46;;;;;;;18.58;16.52;;;;;;;26.85;61.36;92611.91;5009149;28;20283;-71
2023/08/03 07:05:12;;;;;;;18.30;16.55;;;;;;;26.67;59.57;92609.22;5009825;28;20188;-70
2023/08/03 07:07:37;;;;;;;20.35;15.88;;;;;;;27.40;58.49;92601.72;5008215;28;20210;-71
2023/08/03 07:10:03;;;;;;;18.15;16.23;;;;;;;27.46;57.60;92600.16;5009278;28;20214;-70
2023/08/03 07:12:28;;;;;;;17.90;16.10;;;;;;;27.66;58.29;92610.13;5017324;28;20195;-71
2023/08/03 07:14:55;;;;;;;18.08;16.35;;;;;;;27.83;56.45;92601.31;4999563;28;20196;-71
2023/08/03 07:17:21;;;;;;;18.23;16.27;;;;;;;27.31;57.83;92604.00;5008397;28;20305;-70
2023/08/03 07:19:50;;;;;;;18.92;16.92;;;;;;;27.75;56.46;92607.09;5008140;28;20207;-70
2023/08/03 07:22:17;;;;;;;19.25;16.65;;;;;;;27.19;58.42;92607.03;5007048;28;20227;-70
2023/08/03 07:24:42;;;;;;;18.50;16.73;;;;;;;27.01;59.85;92601.63;5004985;28;20251;-70
2023/08/03 07:27:08;;;;;;;18.50;15.65;;;;;;;27.11;58.67;92602.81;5001398;28;20232;-70
2023/08/03 07:29:34;;;;;;;17.77;16.05;;;;;;;27.01;58.13;92601.63;5001660;28;20188;-70
2023/08/03 07:32:00;;;;;;;17.45;15.68;;;;;;;27.49;57.48;92600.19;5006367;28;20316;-70
2023/08/03 07:34:25;;;;;;;17.25;15.45;;;;;;;28.01;53.88;92598.63;5009409;28;20188;-69
2023/08/03 07:36:54;;;;;;;18.40;16.50;;;;;;;27.83;55.23;92609.38;5008671;28;20250;-70
2023/08/03 07:39:20;;;;;;;22.52;15.95;;;;;;;27.72;56.46;92602.50;5010640;28;20223;-70
2023/08/03 07:41:46;;;;;;;17.95;16.35;;;;;;;28.33;55.27;92603.94;4992928;28;20250;-70
2023/08/03 07:44:12;;;;;;;18.02;16.42;;;;;;;27.97;56.81;92601.31;4989791;28;20208;-69
2023/08/03 07:46:37;;;;;;;18.52;16.63;;;;;;;28.02;56.90;92597.47;4989611;28;20220;-74
2023/08/03 07:49:02;;;;;;;17.60;16.00;;;;;;;28.27;54.05;92592.81;4989314;28;20223;-70
2023/08/03 07:51:28;;;;;;;17.70;16.10;;;;;;;27.74;56.74;92597.47;4989455;28;20260;-70
2023/08/03 07:53:55;;;;;;;18.70;16.63;;;;;;;27.56;56.52;92586.00;4984797;28;20196;-70
2023/08/03 07:56:22;;;;;;;18.50;16.73;;;;;;;27.09;58.18;92594.38;4987875;28;20220;-69
2023/08/03 07:58:48;;;;;;;18.17;16.58;;;;;;;27.73;56.08;92585.22;4989382;28;20207;-70
2023/08/03 08:01:14;;;;;;;18.58;16.77;;;;;;;27.99;55.38;92590.19;4989533;28;20243;-69
2023/08/03 08:03:40;;;;;;;17.48;15.45;;;;;;;28.46;53.97;92591.59;4989386;28;20200;-69
2023/08/03 08:06:07;;;;;;;19.02;15.85;;;;;;;27.87;56.57;92595.94;4989312;28;20251;-72
2023/08/03 08:08:33;;;;;;;21.55;16.25;;;;;;;28.07;54.89;92586.34;4979613;28;20192;-70
2023/08/03 08:10:58;;;;;;;19.88;17.88;;;;;;;28.16;56.10;92594.75;4989192;28;20224;-70
2023/08/03 08:13:24;;;;;;;17.00;15.48;;;;;;;28.19;55.24;92589.38;4984567;28;20188;-69
2023/08/03 08:15:49;;;;;;;18.23;16.50;;;;;;;28.13;54.69;92587.47;4986068;28;20227;-72
2023/08/03 08:18:15;;;;;;;22.48;16.27;;;;;;;28.12;55.18;92594.03;4988824;28;20188;-73
2023/08/03 08:20:40;;;;;;;17.95;16.20;;;;;;;28.52;53.24;92577.41;4989040;28;20239;-74
2023/08/03 08:23:06;;;;;;;17.58;15.88;;;;;;;28.97;52.95;92592.56;4988289;28;20201;-74
2023/08/03 08:25:35;;;;;;;18.13;16.30;;;;;;;29.21;52.01;92586.28;4987604;28;20238;-74
2023/08/03 08:28:01;;;;;;;18.33;16.45;;;;;;;28.99;53.19;92587.56;4989747;28;20183;-74
2023/08/03 08:30:26;;;;;;;19.15;16.17;;;;;;;29.05;52.24;92585.97;4992673;28;20235;-74
2023/08/03 08:32:54;;;;;;;18.35;16.45;;;;;;;28.86;52.57;92577.66;5011344;28;20231;-74
2023/08/03 08:35:20;;;;;;;17.45;15.80;;;;;;;28.66;52.55;92582.72;5012623;28;20240;-73
2023/08/03 08:37:45;;;;;;;18.10;16.38;;;;;;;28.18;53.83;92577.13;5013554;28;20195;-74
2023/08/03 08:40:11;;;;;;;18.38;15.73;;;;;;;28.51;54.00;92583.94;5005803;28;20219;-73
2023/08/03 08:42:38;;;;;;;23.60;17.30;;;;;;;28.74;53.31;92578.06;5015585;28;20178;-74
2023/08/03 08:45:06;;;;;;;18.58;16.88;;;;;;;28.43;53.13;92577.03;5008273;28;20195;-73
2023/08/03 08:47:32;;;;;;;19.27;17.30;;;;;;;29.14;51.69;92575.56;4991455;28;20203;-75
2023/08/03 08:49:57;;;;;;;19.50;17.30;;;;;;;28.40;53.89;92567.06;4988434;28;20192;-74
2023/08/03 08:52:25;;;;;;;18.65;16.40;;;;;;;29.26;51.96;92564.34;5011626;28;20300;-74
2023/08/03 08:54:51;;;;;;;18.77;16.25;;;;;;;29.48;50.83;92575.72;5012321;28;20216;-73
2023/08/03 08:57:16;;;;;;;22.35;16.77;;;;;;;29.18;53.25;92583.63;5012301;28;20221;-73
2023/08/03 09:00:05;;;;;;;19.08;17.15;;;;;;;29.70;51.51;92572.47;5012391;28;20215;-73
2023/08/03 09:02:30;;;;;;;18.02;16.27;;;;;;;29.71;50.86;92579.38;5012349;28;20254;-75
2023/08/03 09:04:56;;;;;;;24.45;17.15;;;;;;;29.47;51.66;92574.19;5012698;28;20199;-75
2023/08/03 09:07:21;;;;;;;19.95;16.77;;;;;;;29.36;51.69;92579.66;5009741;28;20231;-69
2023/08/03 09:09:47;;;;;;;19.10;17.30;;;;;;;28.86;52.82;92577.66;5002913;28;20282;-73
2023/08/03 09:12:25;;;;;;;17.90;16.20;;;;;;;28.72;52.96;92567.72;5005931;28;20223;-70
2023/08/03 09:14:51;;;;;;;24.20;16.50;;;;;;;28.97;53.70;92557.59;5003983;28;20196;-69
2023/08/03 09:17:22;;;;;;;18.15;16.27;;;;;;;29.61;52.25;92571.38;5007931;28;20236;-72
2023/08/03 09:19:48;;;;;;;19.27;17.25;;;;;;;29.97;50.12;92574.53;5010983;28;20228;-72
2023/08/03 09:22:14;;;;;;;18.38;16.58;;;;;;;29.54;52.49;92569.50;5010148;28;20219;-71
2023/08/03 09:24:40;;;;;;;18.90;17.13;;;;;;;29.39;51.78;92567.31;5005268;28;20228;-69
2023/08/03 09:27:05;;;;;;;34.92;18.10;;;;;;;29.67;51.87;92573.28;5011991;28;20262;-70
2023/08/03 09:29:31;;;;;;;17.58;16.08;;;;;;;30.08;49.59;92569.81;5002012;28;20183;-70
2023/08/03 09:32:01;;;;;;;18.27;16.63;;;;;;;29.90;50.52;92558.47;4998939;28;20221;-69
2023/08/03 09:34:42;;;;;;;19.77;17.98;;;;;;;29.45;52.16;92561.13;4999122;28;20194;-69
2023/08/03 09:37:09;;;;;;;21.23;16.45;;;;;;;29.66;52.23;92561.00;5010689;28;20294;-69
2023/08/03 09:39:37;;;;;;;17.80;16.20;;;;;;;30.10;51.80;92557.50;5001035;28;20221;-69
2023/08/03 09:42:05;;;;;;;20.02;16.40;;;;;;;30.40;50.55;92551.44;5000775;28;20246;-70
2023/08/03 09:44:35;;;;;;;18.00;16.25;;;;;;;30.50;49.58;92542.44;5001266;28;20187;-69
2023/08/03 09:47:01;;;;;;;17.65;16.13;;;;;;;30.50;49.23;92548.59;4997889;28;20227;-69
2023/08/03 09:49:27;;;;;;;17.83;16.02;;;;;;;30.59;50.34;92551.56;5008764;28;20261;-69
2023/08/03 09:51:57;;;;;;;17.73;16.10;;;;;;;30.37;48.71;92552.97;5004113;28;20216;-69
2023/08/03 09:54:56;;;;;;;17.77;16.23;;;;;;;30.42;49.44;92546.38;5008052;28;20201;-70
2023/08/03 09:57:29;;;;;;;17.92;16.15;;;;;;;30.60;48.66;92544.25;4998763;28;20232;-67
2023/08/03 10:00:07;;;;;;;17.38;15.57;;;;;;;30.81;47.96;92536.66;4993618;28;20267;-68
2023/08/03 10:02:51;;;;;;;18.58;16.67;;;;;;;30.23;50.78;92538.91;5009992;28;20271;-68
2023/08/03 10:05:18;;;;;;;18.73;17.00;;;;;;;30.30;50.73;92538.81;4997980;28;20190;-68
2023/08/03 10:08:02;;;;;;;18.15;16.45;;;;;;;30.74;48.58;92544.81;5011902;28;20345;-67
2023/08/03 10:10:31;;;;;;;18.23;16.42;;;;;;;30.87;47.49;92540.44;4998876;28;20228;-67
2023/08/03 10:13:04;;;;;;;18.25;16.65;;;;;;;30.98;48.33;92535.66;5005223;28;20179;-67
2023/08/03 10:15:31;;;;;;;17.70;16.10;;;;;;;31.15;48.06;92528.47;5010178;28;20295;-67
2023/08/03 10:17:57;;;;;;;18.25;16.60;;;;;;;31.22;47.14;92522.97;4999035;28;20915;-68
2023/08/03 10:20:24;;;;;;;18.02;15.15;;;;;;;31.22;45.87;92529.13;5000254;28;20258;-68
2023/08/03 10:23:12;;;;;;;16.35;14.95;;;;;;;30.74;47.32;92515.16;5009461;28;20251;-66
2023/08/03 10:25:56;;;;;;;17.45;15.68;;;;;;;30.78;48.50;92520.53;5008807;28;20295;-66
2023/08/03 10:28:37;;;;;;;18.05;16.45;;;;;;;30.57;49.21;92515.41;5008224;28;20277;-66
2023/08/03 10:31:10;;;;;;;18.17;16.27;;;;;;;30.56;48.86;92514.63;5007710;28;20231;-66
2023/08/03 10:33:51;;;;;;;17.27;15.68;;;;;;;30.67;49.38;92506.41;5005228;28;20235;-66
2023/08/03 10:36:31;;;;;;;17.45;15.80;;;;;;;31.10;47.00;92504.66;5010349;28;20223;-65
2023/08/03 10:39:07;;;;;;;17.13;15.52;;;;;;;31.37;47.48;92496.56;5010459;28;20282;-66
2023/08/03 10:41:41;;;;;;;16.52;15.00;;;;;;;31.54;45.19;92498.97;5010243;28;20234;-66
2023/08/03 10:44:08;;;;;;;16.70;15.13;;;;;;;31.50;45.72;92495.56;4998091;28;20940;-66
2023/08/03 10:46:40;;;;;;;16.35;14.95;;;;;;;31.71;44.40;92499.81;5010079;28;20239;-66
2023/08/03 10:49:18;;;;;;;17.85;16.27;;;;;;;31.71;44.28;92489.03;5008717;28;20262;-66
2023/08/03 10:52:06;;;;;;;17.33;15.52;;;;;;;31.72;44.70;92491.31;5008464;28;20274;-66
2023/08/03 10:54:32;;;;;;;18.00;16.20;;;;;;;31.21;44.64;92491.75;5007726;28;20203;-65
2023/08/03 10:57:05;;;;;;;16.20;14.77;;;;;;;31.62;44.49;92500.38;5008656;28;20274;-66
2023/08/03 10:59:37;;;;;;;16.58;15.18;;;;;;;31.65;44.72;92491.44;5008818;28;20277;-66
2023/08/03 11:02:14;;;;;;;15.30;13.93;;;;;;;31.47;45.14;92488.31;5010020;28;20235;-67
2023/08/03 11:04:40;;;;;;;16.35;14.38;;;;;;;32.08;43.35;92483.38;5009756;28;20299;-67
2023/08/03 11:07:10;;;;;;;15.30;14.10;;;;;;;32.09;43.45;92484.88;4998929;28;20215;-66
2023/08/03 11:09:36;;;;;;;16.40;14.82;;;;;;;32.18;42.50;92483.16;5003027;28;20226;-67
2023/08/03 11:12:03;;;;;;;16.08;14.50;;;;;;;31.97;42.29;92483.56;5009223;28;20227;-66
2023/08/03 11:14:28;;;;;;;16.63;15.10;;;;;;;32.37;42.61;92482.44;5009717;28;20222;-67
2023/08/03 11:16:54;;;;;;;16.27;14.60;;;;;;;32.13;41.68;92480.94;4999196;28;20219;-66